Etusivu
METAR-TAF:

METAR-TAF

Lentoasemat :

Scappoose Industrial Airpark

Scappoose, Oregon, Yhdysvallat

Leveyspiiri: 45-46-09N, Pituuspiiri: 122-51-44W, korkeus merenpinnasta: 16 m

Tämänhetkinen sää

Tämä raportti tehtiin 2 tuntia ja 23 minuuttia sitten, kello 09.50 UTC
tyyntä
Lämpötila 13°C
Kosteus 94%
Ilmanpaine 1021 hPa
Näkyvyys: 8.0 km
selkeää
utua

METAR: KSPB 010950Z AUTO 00000KT 5SM BR CLR 13/12 A3016 RMK AO2

Aika: 05:13 (12:13 UTC)


TAF: puuttuu

Säähavainnot ja -ennusteet yli 4000 lentoasemalta (METAR- ja TAF-raportit).

Käytössä olevat sääasemat on merkitty karttaan keltaisilla ja punaisilla pisteillä.

Aseta hiiri pisteen päälle nähdäksesi sääaseman nimen.

Klikkaa sitten nähdäksesi säähavainnot ja -ennusteet.

Kartan vaihtaminen: klikkaa mustalla rastilla varustettuja vihreitä pisteitä, niin voit zoomata sisään; viivalla varustettua vihreää pistettä, niin voit zoomata ulos tai vihreitä nuolia, niin pääset viereisille kartoille.


METAR-TAF: